createdAt,value
2019-04-18T00:01:56.842Z,9.97
2019-04-18T00:04:36.255Z,9.97
2019-04-18T00:07:05.458Z,10.80
2019-04-18T00:09:34.224Z,13.83
2019-04-18T00:12:02.953Z,12.53
2019-04-18T00:14:48.596Z,10.47
2019-04-18T00:17:02.643Z,12.07
2019-04-18T00:19:31.466Z,11.67
2019-04-18T00:22:00.245Z,11.33
2019-04-18T00:24:28.962Z,9.67
2019-04-18T00:26:57.696Z,10.80
2019-04-18T00:29:27.367Z,11.07
2019-04-18T00:31:56.240Z,9.73
2019-04-18T00:34:24.968Z,10.80
2019-04-18T00:36:53.787Z,10.30
2019-04-18T00:39:22.509Z,10.03
2019-04-18T00:41:51.233Z,10.20
2019-04-18T00:44:24.598Z,14.03
2019-04-18T00:46:53.338Z,8.77
2019-04-18T00:49:23.130Z,12.80
2019-04-18T00:51:52.085Z,12.67
2019-04-18T00:54:25.088Z,9.87
2019-04-18T00:56:51.251Z,9.47
2019-04-18T00:59:20.733Z,11.00
2019-04-18T01:01:50.521Z,10.60
2019-04-18T01:04:26.738Z,12.73
2019-04-18T01:06:52.334Z,10.17
2019-04-18T01:09:20.173Z,11.00
2019-04-18T01:11:48.904Z,11.97
2019-04-18T01:14:17.802Z,12.03
2019-04-18T01:16:46.523Z,10.77
2019-04-18T01:19:16.902Z,13.63
2019-04-18T01:21:46.175Z,11.33
2019-04-18T01:24:14.900Z,11.47
2019-04-18T01:26:46.251Z,16.50
2019-04-18T01:29:14.145Z,29.80
2019-04-18T01:31:42.868Z,20.23
2019-04-18T01:34:15.037Z,16.77
2019-04-18T01:36:42.118Z,13.53
2019-04-18T01:39:15.830Z,12.67
2019-04-18T01:41:59.766Z,18.60
2019-04-18T01:44:30.058Z,11.93
2019-04-18T01:46:59.118Z,13.43
2019-04-18T01:49:28.145Z,12.07
2019-04-18T01:51:56.874Z,14.80
2019-04-18T01:54:25.624Z,20.87
2019-04-18T01:56:56.019Z,17.47
2019-04-18T01:59:24.824Z,19.20
2019-04-18T02:01:54.358Z,15.30
2019-04-18T02:04:24.201Z,14.27
2019-04-18T02:06:52.895Z,14.03
2019-04-18T02:09:24.275Z,20.20
2019-04-18T02:11:52.146Z,17.33
2019-04-18T02:14:22.132Z,16.23
2019-04-18T02:16:51.325Z,20.80
2019-04-18T02:19:20.114Z,18.57
2019-04-18T02:21:48.836Z,20.50
2019-04-18T02:24:17.560Z,23.70
2019-04-18T02:26:49.516Z,18.23
2019-04-18T02:29:16.879Z,19.13
2019-04-18T02:31:45.595Z,21.37
2019-04-18T02:34:19.172Z,20.73
2019-04-18T02:36:45.511Z,25.30
2019-04-18T02:39:14.234Z,22.27
2019-04-18T02:41:44.074Z,21.13
2019-04-18T02:44:13.587Z,24.70
2019-04-18T02:46:45.811Z,20.70
2019-04-18T02:49:13.027Z,21.43
2019-04-18T02:51:41.704Z,22.47
2019-04-18T02:54:13.148Z,30.43
2019-04-18T02:56:42.847Z,23.87
2019-04-18T02:59:19.345Z,24.73
2019-04-18T03:01:52.814Z,25.03
2019-04-18T03:04:23.113Z,24.13
2019-04-18T03:06:52.736Z,25.13
2019-04-18T03:09:21.522Z,25.13
2019-04-18T03:11:51.936Z,25.60
2019-04-18T03:14:20.691Z,24.33
2019-04-18T03:16:57.732Z,22.30
2019-04-18T03:19:23.555Z,24.13
2019-04-18T03:21:52.268Z,24.03
2019-04-18T03:24:21.228Z,20.37
2019-04-18T03:26:50.038Z,22.93
2019-04-18T03:29:20.189Z,24.17
2019-04-18T03:31:58.217Z,26.80
2019-04-18T03:34:19.725Z,23.70
2019-04-18T03:36:58.237Z,23.63
2019-04-18T03:39:27.752Z,20.50
2019-04-18T03:41:56.469Z,27.00
2019-04-18T03:44:27.154Z,17.23
2019-04-18T03:47:13.544Z,21.73
2019-04-18T03:49:43.752Z,20.40
2019-04-18T03:52:13.031Z,20.67
2019-04-18T03:54:46.515Z,17.93
2019-04-18T03:57:12.293Z,19.57
2019-04-18T03:59:41.019Z,19.40
2019-04-18T04:02:09.745Z,21.60
2019-04-18T04:04:38.595Z,20.00
2019-04-18T04:07:07.321Z,24.20
2019-04-18T04:09:37.573Z,19.90
2019-04-18T04:12:06.586Z,17.83
2019-04-18T04:14:36.982Z,20.27
2019-04-18T04:17:05.773Z,19.57
2019-04-18T04:19:34.574Z,20.73
2019-04-18T04:22:04.712Z,21.57
2019-04-18T04:24:33.760Z,22.17
2019-04-18T04:27:03.667Z,23.83
2019-04-18T04:29:34.245Z,25.10
2019-04-18T04:32:02.983Z,23.00
2019-04-18T04:34:31.801Z,25.80
2019-04-18T04:37:02.240Z,23.97
2019-04-18T04:39:32.140Z,24.17
2019-04-18T04:42:01.426Z,25.70
2019-04-18T04:44:32.844Z,27.30
2019-04-18T04:47:33.471Z,26.17
2019-04-18T04:50:05.073Z,23.80
2019-04-18T04:52:32.777Z,23.93
2019-04-18T04:55:01.519Z,25.37
2019-04-18T04:57:34.793Z,24.00
2019-04-18T05:00:05.198Z,25.17
2019-04-18T05:02:37.247Z,24.93
2019-04-18T05:05:06.532Z,24.70
2019-04-18T05:07:35.271Z,27.87
2019-04-18T05:10:06.966Z,28.13
2019-04-18T05:12:35.405Z,29.13
2019-04-18T05:15:05.043Z,30.37
2019-04-18T05:17:33.883Z,29.40
2019-04-18T05:20:02.617Z,29.57
2019-04-18T05:22:31.342Z,28.30
2019-04-18T05:25:00.224Z,26.53
2019-04-18T05:27:29.724Z,25.27
2019-04-18T05:29:58.656Z,28.07
2019-04-18T05:32:29.881Z,27.20
2019-04-18T05:34:57.953Z,23.67
2019-04-18T05:37:26.686Z,27.67
2019-04-18T05:39:55.563Z,29.87
2019-04-18T05:42:28.037Z,25.40
2019-04-18T05:44:54.800Z,24.03
2019-04-18T05:47:27.991Z,25.17
2019-04-18T05:49:58.393Z,23.17
2019-04-18T05:52:40.803Z,22.13
2019-04-18T05:55:11.217Z,22.97
2019-04-18T05:57:39.963Z,22.93
2019-04-18T06:00:14.146Z,22.90
2019-04-18T06:02:56.425Z,21.97
2019-04-18T06:05:26.893Z,21.30
2019-04-18T06:07:59.363Z,25.37
2019-04-18T06:10:27.754Z,18.90
2019-04-18T06:12:58.207Z,18.63
2019-04-18T06:15:31.508Z,20.87
2019-04-18T06:18:04.043Z,22.00
2019-04-18T06:20:33.909Z,17.93
2019-04-18T06:23:03.045Z,16.90
2019-04-18T06:25:51.187Z,17.37
2019-04-18T06:28:20.754Z,17.30
2019-04-18T06:30:57.101Z,17.00
2019-04-18T06:33:34.126Z,23.87
2019-04-18T06:35:57.857Z,33.97
2019-04-18T06:38:26.728Z,24.90
2019-04-18T06:40:55.455Z,20.13
2019-04-18T06:43:25.730Z,18.67
2019-04-18T06:45:55.179Z,20.57
2019-04-18T06:48:23.910Z,15.97
2019-04-18T06:50:56.866Z,17.20
2019-04-18T06:53:23.886Z,16.77
2019-04-18T06:55:52.613Z,21.70
2019-04-18T06:58:34.653Z,18.07
2019-04-18T07:00:52.296Z,19.57
2019-04-18T07:03:23.462Z,14.13
2019-04-18T07:05:51.472Z,16.17
2019-04-18T07:08:26.210Z,13.50
2019-04-18T07:10:56.867Z,13.23
2019-04-18T07:13:29.553Z,12.23
2019-04-18T07:15:58.289Z,13.03
2019-04-18T07:18:29.798Z,16.70
2019-04-18T07:20:59.262Z,25.43
2019-04-18T07:23:29.575Z,14.37
2019-04-18T07:25:59.411Z,19.13
2019-04-18T07:28:28.322Z,12.53
2019-04-18T07:30:57.044Z,13.67
2019-04-18T07:33:25.780Z,11.47
2019-04-18T07:35:54.689Z,13.70
2019-04-18T07:38:26.894Z,12.53
2019-04-18T07:40:53.882Z,10.93
2019-04-18T07:43:24.329Z,17.50
2019-04-18T07:45:53.847Z,13.07
2019-04-18T07:48:22.574Z,10.77
2019-04-18T07:50:51.452Z,11.90
2019-04-18T07:53:21.433Z,14.33
2019-04-18T07:55:50.762Z,13.70
2019-04-18T07:58:23.672Z,15.37
2019-04-18T08:00:50.789Z,12.43
2019-04-18T08:03:22.932Z,10.97
2019-04-18T08:05:50.138Z,15.47
2019-04-18T08:08:19.780Z,12.43
2019-04-18T08:10:48.634Z,13.10
2019-04-18T08:13:17.715Z,13.03
2019-04-18T08:15:46.607Z,13.07
2019-04-18T08:18:15.345Z,14.70
2019-04-18T08:20:44.139Z,16.73
2019-04-18T08:23:22.415Z,13.73
2019-04-18T08:25:45.641Z,13.23
2019-04-18T08:28:16.436Z,13.30
2019-04-18T08:30:44.370Z,15.83
2019-04-18T08:33:13.110Z,20.93
2019-04-18T08:35:52.707Z,14.80
2019-04-18T08:38:34.951Z,12.00
2019-04-18T08:41:05.494Z,13.60
2019-04-18T08:43:38.472Z,15.50
2019-04-18T08:46:07.917Z,15.87
2019-04-18T08:48:38.404Z,20.77
2019-04-18T08:51:26.670Z,17.07
2019-04-18T08:54:00.118Z,13.90
2019-04-18T08:56:31.454Z,13.93
2019-04-18T08:59:00.879Z,14.27
2019-04-18T09:01:29.636Z,18.87
2019-04-18T09:03:58.375Z,15.47
2019-04-18T09:06:33.966Z,18.20
2019-04-18T09:08:58.477Z,15.73
2019-04-18T09:11:27.843Z,15.80
2019-04-18T09:14:08.731Z,14.77
2019-04-18T09:16:39.106Z,14.60
2019-04-18T09:19:09.515Z,16.40
2019-04-18T09:21:39.261Z,15.90
2019-04-18T09:24:08.430Z,29.80
2019-04-18T09:26:40.201Z,23.73
2019-04-18T09:29:07.943Z,17.50
2019-04-18T09:31:37.299Z,15.27
2019-04-18T09:34:06.962Z,15.20
2019-04-18T09:36:36.110Z,21.20
2019-04-18T09:39:09.856Z,16.03
2019-04-18T09:41:37.791Z,14.00
2019-04-18T09:44:11.843Z,15.27
2019-04-18T09:46:39.129Z,22.87
2019-04-18T09:49:07.977Z,14.50
2019-04-18T09:51:36.963Z,13.37
2019-04-18T09:54:06.102Z,15.37
2019-04-18T09:56:34.898Z,11.37
2019-04-18T09:59:04.040Z,13.27
2019-04-18T10:01:32.784Z,11.13
2019-04-18T10:04:01.514Z,12.60
2019-04-18T10:06:30.309Z,14.20
2019-04-18T10:08:59.037Z,18.30
2019-04-18T10:11:27.778Z,11.13
2019-04-18T10:13:56.555Z,9.63
2019-04-18T10:16:25.296Z,12.13
2019-04-18T10:18:54.018Z,9.60
2019-04-18T10:21:36.872Z,11.10
2019-04-18T10:24:05.704Z,13.17
2019-04-18T10:26:54.585Z,10.73
2019-04-18T10:29:24.887Z,18.20
2019-04-18T10:31:53.661Z,10.03
2019-04-18T10:34:22.487Z,12.47
2019-04-18T10:36:51.218Z,48.00
2019-04-18T10:39:24.074Z,10.17
2019-04-18T10:41:51.038Z,11.33
2019-04-18T10:44:19.768Z,13.30
2019-04-18T10:46:48.597Z,12.50
2019-04-18T10:49:17.406Z,10.53
2019-04-18T10:51:46.141Z,8.47
2019-04-18T10:54:15.182Z,13.13
2019-04-18T10:56:44.058Z,12.33
2019-04-18T10:59:14.006Z,11.33
2019-04-18T11:01:42.757Z,8.50
2019-04-18T11:04:18.034Z,8.77
2019-04-18T11:06:42.066Z,7.73
2019-04-18T11:09:10.854Z,7.70
2019-04-18T11:11:39.738Z,12.43
2019-04-18T11:14:08.481Z,12.10
2019-04-18T11:16:37.214Z,9.10
2019-04-18T11:19:06.113Z,9.13
2019-04-18T11:21:35.569Z,8.17
2019-04-18T11:24:04.416Z,13.97
2019-04-18T11:26:33.280Z,14.20
2019-04-18T11:29:02.014Z,8.07
2019-04-18T11:31:30.737Z,6.57
2019-04-18T11:34:12.023Z,8.77
2019-04-18T11:36:40.704Z,7.73
2019-04-18T11:39:09.444Z,15.73
2019-04-18T11:41:38.185Z,7.40
2019-04-18T11:44:06.943Z,22.97
2019-04-18T11:46:35.771Z,17.33
2019-04-18T11:49:04.719Z,12.77
2019-04-18T11:51:33.434Z,7.03
2019-04-18T11:54:02.605Z,10.67
2019-04-18T11:56:31.443Z,6.03
2019-04-18T11:59:04.447Z,6.90
2019-04-18T12:01:34.793Z,7.80
2019-04-18T12:04:11.079Z,14.23
2019-04-18T12:06:39.842Z,13.57
2019-04-18T12:09:09.079Z,9.37
2019-04-18T12:11:37.857Z,7.07
2019-04-18T12:14:06.571Z,10.17
2019-04-18T12:16:39.045Z,10.47
2019-04-18T12:19:05.978Z,10.10
2019-04-18T12:21:34.695Z,16.97
2019-04-18T12:24:03.673Z,10.30
2019-04-18T12:26:32.402Z,8.27
2019-04-18T12:29:01.116Z,7.43
2019-04-18T12:31:31.287Z,5.33
2019-04-18T12:34:00.184Z,6.20
2019-04-18T12:36:28.909Z,6.10
2019-04-18T12:38:57.706Z,8.60
2019-04-18T12:41:26.658Z,5.70
2019-04-18T12:43:55.383Z,5.23
2019-04-18T12:46:24.278Z,6.23
2019-04-18T12:48:52.991Z,7.33
2019-04-18T12:51:21.713Z,7.13
2019-04-18T12:53:50.530Z,10.60
2019-04-18T12:56:19.353Z,6.70
2019-04-18T12:58:48.075Z,8.73
2019-04-18T13:01:17.303Z,5.90
2019-04-18T13:03:46.035Z,5.70
2019-04-18T13:06:14.765Z,5.03
2019-04-18T13:08:45.204Z,6.07
2019-04-18T13:11:18.225Z,6.17
2019-04-18T13:14:07.665Z,8.03
2019-04-18T13:16:41.172Z,5.73
2019-04-18T13:19:09.991Z,14.30
2019-04-18T13:21:39.627Z,7.40
2019-04-18T13:24:11.162Z,5.43
2019-04-18T13:26:38.818Z,5.70
2019-04-18T13:29:07.796Z,7.27
2019-04-18T13:31:36.521Z,6.87
2019-04-18T13:34:05.350Z,5.97
2019-04-18T13:36:34.214Z,6.30
2019-04-18T13:39:05.546Z,5.83
2019-04-18T13:41:33.990Z,6.03
2019-04-18T13:44:03.133Z,5.63
2019-04-18T13:46:31.828Z,7.30
2019-04-18T13:49:00.562Z,5.10
2019-04-18T13:51:29.324Z,6.33
2019-04-18T13:54:05.139Z,9.47
2019-04-18T13:56:28.500Z,7.07
2019-04-18T13:58:57.720Z,6.43
2019-04-18T14:01:26.670Z,6.13
2019-04-18T14:03:55.511Z,4.63
2019-04-18T14:06:24.867Z,5.03
2019-04-18T14:08:53.595Z,8.37
2019-04-18T14:11:22.328Z,5.60
2019-04-18T14:13:51.302Z,5.90
2019-04-18T14:16:20.013Z,5.67
2019-04-18T14:18:48.746Z,6.37
2019-04-18T14:21:18.558Z,3.97
2019-04-18T14:23:50.937Z,4.53
2019-04-18T14:26:17.739Z,5.47
2019-04-18T14:28:46.616Z,10.17
2019-04-18T14:31:15.337Z,7.07
2019-04-18T14:33:44.066Z,4.73
2019-04-18T14:36:12.901Z,6.13
2019-04-18T14:38:41.613Z,4.73
2019-04-18T14:41:10.331Z,6.50
2019-04-18T14:43:39.988Z,4.27
2019-04-18T14:46:09.096Z,5.37
2019-04-18T14:48:37.805Z,7.73
2019-04-18T14:51:06.781Z,10.73
2019-04-18T14:53:35.507Z,16.80
2019-04-18T14:56:04.248Z,19.93
2019-04-18T14:58:33.141Z,8.47
2019-04-18T15:01:01.874Z,7.87
2019-04-18T15:03:30.695Z,8.27
2019-04-18T15:05:59.571Z,8.03
2019-04-18T15:08:29.867Z,8.00
2019-04-18T15:10:58.687Z,7.23
2019-04-18T15:13:28.425Z,7.50
2019-04-18T15:15:57.153Z,6.37
2019-04-18T15:18:25.871Z,4.70
2019-04-18T15:20:54.750Z,4.07
2019-04-18T15:23:23.488Z,8.80
2019-04-18T15:25:52.207Z,5.63
2019-04-18T15:28:21.181Z,5.07
2019-04-18T15:30:52.924Z,10.90
2019-04-18T15:33:20.346Z,10.10
2019-04-18T15:35:50.378Z,9.23
2019-04-18T15:38:19.147Z,9.43
2019-04-18T15:40:48.240Z,7.57
2019-04-18T15:43:17.813Z,8.50
2019-04-18T15:46:06.131Z,7.17
2019-04-18T15:48:35.095Z,8.13
2019-04-18T15:51:06.233Z,8.90
2019-04-18T15:53:35.771Z,9.23
2019-04-18T15:56:04.803Z,9.67
2019-04-18T15:58:33.645Z,8.07
2019-04-18T16:01:02.838Z,9.93
2019-04-18T16:03:31.795Z,12.27
2019-04-18T16:06:00.532Z,13.70
2019-04-18T16:08:29.278Z,15.20
2019-04-18T16:10:58.139Z,10.87
2019-04-18T16:13:26.859Z,14.07
2019-04-18T16:15:56.334Z,15.83
2019-04-18T16:18:25.250Z,13.83
2019-04-18T16:20:53.983Z,17.20
2019-04-18T16:23:22.878Z,16.30
2019-04-18T16:25:51.746Z,11.37
2019-04-18T16:28:20.478Z,11.07
2019-04-18T16:30:49.301Z,10.90
2019-04-18T16:33:18.194Z,14.53
2019-04-18T16:35:47.041Z,13.47
2019-04-18T16:38:15.870Z,13.20
2019-04-18T16:40:45.697Z,23.20
2019-04-18T16:43:14.668Z,22.20
2019-04-18T16:45:43.554Z,26.67
2019-04-18T16:48:12.446Z,31.93
2019-04-18T16:50:41.380Z,34.63
2019-04-18T16:53:11.220Z,27.17
2019-04-18T16:55:40.211Z,13.47
2019-04-18T16:58:09.149Z,8.67
2019-04-18T17:00:46.256Z,11.03
2019-04-18T17:03:16.884Z,11.50
2019-04-18T17:05:45.706Z,14.50
2019-04-18T17:08:14.975Z,16.93
2019-04-18T17:10:43.811Z,14.27
2019-04-18T17:13:12.544Z,12.97
2019-04-18T17:15:41.347Z,5.80
2019-04-18T17:18:10.082Z,4.13
2019-04-18T17:20:38.808Z,6.97
2019-04-18T17:23:22.345Z,8.60
2019-04-18T17:25:52.938Z,11.93
2019-04-18T17:28:23.049Z,5.67
2019-04-18T17:30:53.692Z,5.03
2019-04-18T17:33:22.421Z,23.73
2019-04-18T17:36:05.901Z,19.27
2019-04-18T17:38:43.604Z,12.00
2019-04-18T17:41:00.673Z,9.33
2019-04-18T17:43:23.182Z,7.83
2019-04-18T17:46:05.049Z,4.37
2019-04-18T17:48:35.618Z,4.87
2019-04-18T17:51:09.365Z,3.63
2019-04-18T17:53:47.913Z,3.07
2019-04-18T17:56:15.821Z,1.57
2019-04-18T17:58:37.541Z,1.43
2019-04-18T18:01:08.524Z,2.07
2019-04-18T18:03:42.550Z,1.83
2019-04-18T18:06:14.216Z,2.20
2019-04-18T18:08:42.792Z,1.50
2019-04-18T18:11:12.799Z,0.97
2019-04-18T18:13:40.972Z,1.37
2019-04-18T18:16:16.338Z,1.20
2019-04-18T18:18:46.389Z,0.97
2019-04-18T18:21:16.267Z,0.80
2019-04-18T18:23:50.399Z,1.20
2019-04-18T18:26:21.278Z,2.40
2019-04-18T18:28:46.488Z,1.70
2019-04-18T18:31:32.954Z,23.63
2019-04-18T18:34:09.411Z,1.47
2019-04-18T18:36:36.327Z,5.23
2019-04-18T18:39:08.071Z,2.23
2019-04-18T18:41:41.830Z,1.73
2019-04-18T18:44:13.376Z,3.00
2019-04-18T18:46:37.986Z,1.70
2019-04-18T18:49:13.389Z,2.10
2019-04-18T18:51:37.635Z,2.30
2019-04-18T18:54:07.175Z,3.10
2019-04-18T18:56:36.549Z,3.67
2019-04-18T18:59:12.397Z,2.20
2019-04-18T19:01:36.888Z,2.70
2019-04-18T19:04:13.631Z,2.60
2019-04-18T19:06:45.487Z,2.87
2019-04-18T19:09:32.792Z,3.20
2019-04-18T19:11:59.799Z,2.83
2019-04-18T19:14:22.376Z,2.63
2019-04-18T19:16:54.077Z,3.13
2019-04-18T19:19:15.358Z,2.60
2019-04-18T19:21:51.058Z,3.70
2019-04-18T19:24:17.431Z,3.40
2019-04-18T19:26:50.544Z,3.50
2019-04-18T19:29:23.474Z,3.63
2019-04-18T19:31:54.578Z,3.23
2019-04-18T19:34:20.689Z,4.83
2019-04-18T19:37:04.150Z,4.50
2019-04-18T19:39:40.780Z,3.47
2019-04-18T19:42:00.721Z,4.70
2019-04-18T19:44:23.003Z,5.23
2019-04-18T19:46:51.361Z,4.50
2019-04-18T19:49:21.345Z,3.50
2019-04-18T19:51:53.288Z,4.10
2019-04-18T19:54:21.074Z,5.87
2019-04-18T19:56:49.798Z,4.73
2019-04-18T19:59:19.491Z,5.47
2019-04-18T20:01:49.171Z,4.27
2019-04-18T20:04:18.364Z,4.20
2019-04-18T20:07:06.067Z,4.10
2019-04-18T20:09:27.126Z,5.13
2019-04-18T20:11:58.883Z,4.40
2019-04-18T20:14:22.379Z,4.33
2019-04-18T20:16:49.955Z,5.03
2019-04-18T20:19:21.829Z,4.90
2019-04-18T20:21:56.891Z,5.63
2019-04-18T20:24:19.768Z,5.60
2019-04-18T20:26:50.058Z,7.50
2019-04-18T20:29:28.127Z,5.97
2019-04-18T20:31:52.211Z,6.33
2019-04-18T20:34:20.496Z,5.07
2019-04-18T20:37:01.925Z,6.73
2019-04-18T20:40:02.623Z,7.50
2019-04-18T20:42:15.910Z,4.37
2019-04-18T20:44:31.252Z,7.40
2019-04-18T20:47:01.688Z,4.97
2019-04-18T20:49:40.979Z,16.10
2019-04-18T20:51:58.619Z,9.70
2019-04-18T20:54:39.018Z,12.30
2019-04-18T20:56:54.217Z,13.67
2019-04-18T20:59:24.157Z,9.67
2019-04-18T21:01:53.013Z,7.47
2019-04-18T21:04:23.104Z,12.30
2019-04-18T21:07:04.030Z,8.37
2019-04-18T21:09:30.878Z,8.23
2019-04-18T21:11:53.747Z,7.00
2019-04-18T21:14:22.612Z,10.13
2019-04-18T21:16:51.979Z,7.63
2019-04-18T21:19:20.979Z,8.83
2019-04-18T21:21:50.180Z,12.47
2019-04-18T21:24:18.984Z,8.87
2019-04-18T21:26:53.952Z,7.17
2019-04-18T21:29:18.156Z,8.20
2019-04-18T21:31:47.000Z,7.30
2019-04-18T21:34:17.138Z,8.23
2019-04-18T21:37:09.045Z,42.43
2019-04-18T21:39:22.707Z,32.83
2019-04-18T21:41:47.827Z,16.20
2019-04-18T21:44:17.111Z,12.37
2019-04-18T21:46:49.543Z,9.23
2019-04-18T21:49:18.109Z,8.87
2019-04-18T21:51:49.919Z,9.57
2019-04-18T21:54:17.912Z,9.63
2019-04-18T21:56:51.304Z,18.30
2019-04-18T21:59:30.258Z,46.10
2019-04-18T22:01:51.432Z,23.23
2019-04-18T22:04:27.598Z,12.20
2019-04-18T22:06:52.789Z,14.90
2019-04-18T22:09:22.137Z,12.43
2019-04-18T22:11:56.941Z,12.10
2019-04-18T22:14:22.657Z,13.70
2019-04-18T22:16:51.705Z,14.93
2019-04-18T22:19:21.704Z,15.53
2019-04-18T22:21:52.322Z,26.83
2019-04-18T22:24:25.011Z,21.13
2019-04-18T22:26:52.706Z,17.70
2019-04-18T22:29:26.922Z,15.73
2019-04-18T22:31:52.315Z,14.27
2019-04-18T22:34:24.184Z,13.47
2019-04-18T22:36:56.652Z,14.27
2019-04-18T22:39:26.010Z,15.80
2019-04-18T22:41:52.636Z,13.13
2019-04-18T22:44:23.711Z,12.33
2019-04-18T22:46:53.321Z,12.70
2019-04-18T22:49:24.249Z,12.83
2019-04-18T22:51:55.295Z,15.33
2019-04-18T22:54:31.220Z,13.73
2019-04-18T22:56:57.267Z,14.20
2019-04-18T22:59:25.661Z,11.93
2019-04-18T23:02:00.801Z,11.57
2019-04-18T23:04:26.119Z,11.27
2019-04-18T23:06:55.746Z,12.07
2019-04-18T23:09:33.082Z,11.23
2019-04-18T23:11:59.969Z,10.10
2019-04-18T23:14:26.787Z,13.87
2019-04-18T23:16:58.516Z,11.03
2019-04-18T23:19:26.621Z,10.10
2019-04-18T23:21:59.966Z,10.17
2019-04-18T23:24:30.799Z,9.90
2019-04-18T23:26:59.239Z,14.27
2019-04-18T23:29:27.633Z,11.23
2019-04-18T23:32:01.226Z,11.73
2019-04-18T23:34:34.450Z,13.40
2019-04-18T23:36:59.435Z,12.13
2019-04-18T23:39:29.978Z,12.70
2019-04-18T23:42:05.556Z,12.40
2019-04-18T23:44:29.601Z,12.27
2019-04-18T23:47:04.369Z,11.87
2019-04-18T23:49:31.232Z,12.77
2019-04-18T23:51:59.978Z,13.50
2019-04-18T23:54:32.799Z,12.47
2019-04-18T23:56:59.628Z,12.07
2019-04-18T23:59:33.262Z,11.73
